• Join FlightAware (Why Join?)
  • Login
  • US Flag 
01:23AM EDT


 

Airport Tracker/Info


-or-


 

Live Flight TrackerFlight Track Log ✈ UAL4788 ✈ 22-Apr-2013 ✈ KFNT - KCLE

Flight Track Log - Related Links

Times and Time Zones

All times are in EDT time to prevent confusion due to time zone crossing. See the UAL4788 flight status page for this flight to view local times or setup timezone preferences in your user account.

Time Position Orientation Groundspeed Altitude Reporting Facility
EDT Latitude Longitude Course Direction KTS MPH feet Rate Location/Type
06:00AM 42.9303 -83.7425 100° East 116 133 2,700  Level FAA TRACON SMA TRACON (SMA)
06:01AM 42.9236 -83.7278 122° Southeast 149 171 3,000 1,200 Climbing FAA TRACON SMA TRACON (SMA)
06:01AM 42.9208 -83.7042 99° East 162 186 3,500 1,620 Climbing FAA TRACON SMA TRACON (SMA)
06:01AM 42.9122 -83.6889 128° Southeast 157 181 4,100 1,500 Climbing FAA TRACON SMA TRACON (SMA)
06:02AM 42.9031 -83.6742 130° Southeast 165 190 4,500 1,200 Climbing FAA TRACON SMA TRACON (SMA)
06:02AM 42.8900 -83.6561 135° Southeast 175 201 4,900 1,200 Climbing FAA TRACON SMA TRACON (SMA)
06:02AM 42.8789 -83.6406 134° Southeast 185 213 5,300 1,440 Climbing FAA TRACON SMA TRACON (SMA)
06:03AM 42.8647 -83.6203 134° Southeast 188 216 5,900 1,500 Climbing FAA TRACON SMA TRACON (SMA)
06:03AM 42.8533 -83.6042 134° Southeast 190 219 6,300 1,200 Climbing FAA TRACON SMA TRACON (SMA)
06:03AM 42.8422 -83.5872 132° Southeast 193 222 6,700 840 Climbing FAA TRACON SMA TRACON (SMA)
06:04AM 42.8306 -83.5708 134° Southeast 195 224 6,900 420 Climbing FAA TRACON SMA TRACON (SMA)
06:04AM 42.8144 -83.5475 133° Southeast 221 254 7,000 120 Climbing FAA TRACON SMA TRACON (SMA)
06:04AM 42.8008 -83.5278 133° Southeast 237 273 7,000  Level FAA TRACON SMA TRACON (SMA)
06:05AM 42.7867 -83.5075 134° Southeast 242 278 7,000  Level FAA TRACON SMA TRACON (SMA)
06:05AM 42.7681 -83.4817 134° Southeast 246 283 7,000  Level FAA TRACON SMA TRACON (SMA)
06:05AM 42.7533 -83.4608 134° Southeast 246 283 7,000  Level FAA TRACON SMA TRACON (SMA)
06:06AM 42.7096 -83.4240 100° East  Level Estimated
06:06AM 42.7389 -83.4400 133° Southeast 246 283 7,000  Level FAA TRACON SMA TRACON (SMA)
06:06AM 42.7206 -83.4139 134° Southeast 247 284 7,000  Level FAA TRACON SMA TRACON (SMA)
06:06AM 42.7061 -83.3931 133° Southeast 246 283 7,000  Level FAA TRACON SMA TRACON (SMA)
06:07AM 42.6914 -83.3722 134° Southeast 246 283 7,000  Level FAA TRACON SMA TRACON (SMA)
06:07AM 42.6733 -83.3467 134° Southeast 245 282 7,000  Level FAA TRACON SMA TRACON (SMA)
06:07AM 42.6586 -83.3261 134° Southeast 247 284 7,000  Level FAA TRACON SMA TRACON (SMA)
06:08AM 42.6442 -83.3056 134° Southeast 243 280 7,000  Level FAA TRACON SMA TRACON (SMA)
06:08AM 42.6258 -83.2803 135° Southeast 244 281 7,000  Level FAA TRACON SMA TRACON (SMA)
06:08AM 42.6114 -83.2594 133° Southeast 243 280 7,000  Level FAA TRACON SMA TRACON (SMA)
06:09AM 42.5969 -83.2389 134° Southeast 243 280 7,000  Level FAA TRACON SMA TRACON (SMA)
06:09AM 42.5825 -83.2183 134° Southeast 245 282 7,000  Level FAA TRACON SMA TRACON (SMA)
06:09AM 42.5642 -83.1919 133° Southeast 246 283 7,000  Level FAA TRACON SMA TRACON (SMA)
06:10AM 42.5500 -83.1719 134° Southeast 246 283 7,000  Level FAA TRACON SMA TRACON (SMA)
06:10AM 42.5325 -83.1475 134° Southeast 246 283 7,000  Level FAA TRACON SMA TRACON (SMA)
06:10AM 42.5153 -83.1231 134° Southeast 246 283 7,000  Level FAA TRACON SMA TRACON (SMA)
06:11AM 42.5017 -83.1039 134° Southeast 246 283 7,000  Level FAA TRACON SMA TRACON (SMA)
06:11AM 42.4842 -83.0794 134° Southeast 246 283 7,000  Level FAA TRACON SMA TRACON (SMA)
06:11AM 42.4733 -83.0575 124° Southeast 243 280 7,000  Level FAA TRACON SMA TRACON (SMA)
06:12AM 42.4628 -83.0303 118° Southeast 260 299 7,000  Level FAA TRACON SMA TRACON (SMA)
06:12AM 42.4511 -82.9989 117° Southeast 243 280 7,000  Level FAA TRACON SMA TRACON (SMA)
06:12AM 42.4417 -82.9736 117° Southeast 243 280 7,000  Level FAA TRACON SMA TRACON (SMA)
06:13AM 42.4322 -82.9486 117° Southeast 243 280 7,000  Level FAA TRACON SMA TRACON (SMA)
06:13AM 42.4228 -82.9236 117° Southeast 243 280 7,000  Level FAA TRACON SMA TRACON (SMA)
06:13AM 42.4111 -82.8922 117° Southeast 242 278 7,000  Level FAA TRACON SMA TRACON (SMA)
06:14AM 42.4019 -82.8672 116° Southeast 243 280 7,000  Level FAA TRACON SMA TRACON (SMA)
06:14AM 42.3925 -82.8419 117° Southeast 242 278 7,000  Level FAA TRACON SMA TRACON (SMA)
06:14AM 42.3808 -82.8106 117° Southeast 242 278 7,000  Level FAA TRACON SMA TRACON (SMA)
06:15AM 42.3717 -82.7858 117° Southeast 242 278 7,000  Level FAA TRACON SMA TRACON (SMA)
06:15AM 42.3594 -82.7631 126° Southeast 256 295 7,000  Level FAA TRACON SMA TRACON (SMA)
06:15AM 42.3394 -82.7400 140° Southeast 241 277 7,000  Level FAA TRACON SMA TRACON (SMA)
06:16AM 42.3219 -82.7231 144° Southeast 252 290 7,000  Level FAA TRACON SMA TRACON (SMA)
06:16AM 42.3058 -82.7056 141° Southeast 245 282 7,000  Level FAA TRACON SMA TRACON (SMA)
06:16AM 42.2858 -82.6828 140° Southeast 244 281 7,000  Level FAA TRACON SMA TRACON (SMA)
06:17AM 42.2697 -82.6647 140° Southeast 244 281 7,000  Level FAA TRACON SMA TRACON (SMA)
06:17AM 42.2536 -82.6467 140° Southeast 244 281 7,000  Level FAA TRACON SMA TRACON (SMA)
06:17AM 42.2331 -82.6239 141° Southeast 246 283 7,000  Level FAA TRACON SMA TRACON (SMA)
06:18AM 42.2169 -82.6056 140° Southeast 247 284 7,000  Level FAA TRACON SMA TRACON (SMA)
06:18AM 42.2006 -82.5875 141° Southeast 247 284 7,000  Level FAA TRACON SMA TRACON (SMA)
06:18AM 42.1800 -82.5647 141° Southeast 247 284 7,000  Level FAA TRACON SMA TRACON (SMA)
06:19AM 42.1642 -82.5467 140° Southeast 245 282 7,000  Level FAA TRACON SMA TRACON (SMA)
06:19AM 42.1478 -82.5286 141° Southeast 246 283 7,000  Level FAA TRACON SMA TRACON (SMA)
06:19AM 42.1269 -82.5061 141° Southeast 247 284 7,000  Level FAA TRACON SMA TRACON (SMA)
06:20AM 42.1111 -82.4881 140° Southeast 247 284 7,000  Level FAA TRACON SMA TRACON (SMA)
06:20AM 42.0944 -82.4703 142° Southeast 248 285 7,000  Level FAA TRACON SMA TRACON (SMA)
06:20AM 42.0742 -82.4478 141° Southeast 247 284 7,000  Level FAA TRACON SMA TRACON (SMA)
06:21AM 42.0575 -82.4297 141° Southeast 248 285 7,000  Level FAA TRACON SMA TRACON (SMA)
06:21AM 42.0414 -82.4117 140° Southeast 247 284 7,000  Level FAA TRACON SMA TRACON (SMA)
06:21AM 42.0211 -82.3889 140° Southeast 247 284 7,000  Level FAA TRACON SMA TRACON (SMA)
06:22AM 42.0047 -82.3706 140° Southeast 247 284 7,000  Level FAA TRACON SMA TRACON (SMA)
06:22AM 41.9881 -82.3522 141° Southeast 247 284 7,000  Level FAA TRACON SMA TRACON (SMA)
06:22AM 41.9683 -82.3294 139° Southeast 245 282 7,000  Level FAA TRACON SMA TRACON (SMA)
06:23AM 41.9519 -82.3114 141° Southeast 246 283 7,000  Level FAA TRACON SMA TRACON (SMA)
06:23AM 41.9356 -82.2931 140° Southeast 246 283 7,000  Level FAA TRACON SMA TRACON (SMA)
06:23AM 41.9181 -82.2825 156° South 249 287 7,000  Level Cleveland Center
06:24AM 41.9017 -82.2653 142° Southeast 251 289 7,000  Level Cleveland Center
06:24AM 41.8628 -82.2197 139° Southeast 249 287 7,000  Level Cleveland Center
06:25AM 41.8506 -82.2056 139° Southeast 251 289 7,000 -120 Level Cleveland Center
06:25AM 41.8050 -82.1736 152° Southeast 248 285 6,900 -120 Descending Cleveland Center
06:26AM 41.7906 -82.1594 144° Southeast 251 289 6,900 -420 Level Cleveland Center
06:26AM 41.7408 -82.1528 174° South 253 291 6,500 -960 Descending Cleveland Center
06:27AM 41.6719 -82.1622 186° South 252 290 5,300 -840 Descending Cleveland Center
06:28AM 41.6031 -82.1686 184° South 240 276 4,900 -480 Descending Cleveland Center
06:29AM 41.5278 -82.1697 181° South 243 280 4,300 -780 Descending Cleveland Center
06:31AM 41.4744 -82.1072 139° Southeast 231 266 3,300 -660 Descending Cleveland Center
06:32AM 41.4231 -82.0592 145° Southeast 221 254 2,900 -240 Descending Cleveland Center
06:32AM 41.3881 -82.0167 138° Southeast 199 229 2,900 -420 Level Cleveland Center
06:33AM 41.3700 -81.9556 111° Southeast 150 173 2,100 -720 Descending Cleveland Center
06:34AM 41.3811 -81.9031 74° East 122 140 1,400 -720 Descending Cleveland Center
06:36AM 41.4000 -81.8500 143° Southeast  Level FlightAware Approximate
06:43AM 41.4094 -81.8547 143° Southeast  Level Estimated
06:44AM 41.4094 -81.8547 143° Southeast  Level Estimated